createdAt,value
2022-10-05T00:01:57.945Z,99.90
2022-10-05T00:06:59.879Z,99.90
2022-10-05T00:12:01.631Z,99.90
2022-10-05T00:17:03.413Z,99.90
2022-10-05T00:22:05.123Z,99.90
2022-10-05T00:27:06.867Z,99.90
2022-10-05T00:32:08.457Z,99.90
2022-10-05T00:37:10.129Z,99.90
2022-10-05T00:42:11.837Z,99.90
2022-10-05T00:47:13.565Z,99.90
2022-10-05T00:52:15.330Z,99.90
2022-10-05T00:57:17.080Z,99.90
2022-10-05T01:02:18.958Z,99.90
2022-10-05T01:07:20.652Z,99.90
2022-10-05T01:12:22.338Z,99.90
2022-10-05T01:17:24.087Z,99.90
2022-10-05T01:22:25.784Z,99.90
2022-10-05T01:27:27.637Z,99.90
2022-10-05T01:32:29.350Z,99.90
2022-10-05T01:37:31.101Z,99.90
2022-10-05T01:42:32.852Z,99.90
2022-10-05T01:47:34.629Z,99.90
2022-10-05T01:52:36.381Z,99.90
2022-10-05T01:57:37.933Z,99.90
2022-10-05T02:02:39.688Z,99.90
2022-10-05T02:07:41.339Z,99.90
2022-10-05T02:12:43.084Z,99.90
2022-10-05T02:17:44.820Z,99.90
2022-10-05T02:22:46.586Z,99.90
2022-10-05T02:27:48.341Z,99.90
2022-10-05T02:32:50.085Z,99.90
2022-10-05T02:37:51.876Z,99.90
2022-10-05T02:42:53.589Z,99.90
2022-10-05T02:47:55.398Z,99.90
2022-10-05T02:52:57.117Z,99.90
2022-10-05T02:57:58.645Z,99.90
2022-10-05T03:03:00.300Z,99.90
2022-10-05T03:08:01.850Z,99.90
2022-10-05T03:13:03.512Z,99.90
2022-10-05T03:18:05.239Z,99.90
2022-10-05T03:23:06.942Z,99.90
2022-10-05T03:28:08.834Z,99.90
2022-10-05T03:33:10.510Z,99.90
2022-10-05T03:38:12.262Z,99.90
2022-10-05T03:43:14.004Z,99.90
2022-10-05T03:48:15.761Z,99.90
2022-10-05T03:53:17.553Z,99.90
2022-10-05T03:58:19.063Z,99.90
2022-10-05T04:08:48.016Z,99.90
2022-10-05T04:13:49.921Z,99.90
2022-10-05T04:18:51.702Z,99.90
2022-10-05T04:23:53.431Z,99.90
2022-10-05T04:28:54.979Z,99.90
2022-10-05T04:33:56.515Z,99.90
2022-10-05T04:38:58.117Z,99.90
2022-10-05T04:43:59.826Z,99.90
2022-10-05T04:49:01.596Z,99.90
2022-10-05T04:54:03.326Z,99.90
2022-10-05T04:59:05.098Z,99.90
2022-10-05T05:04:06.903Z,99.90
2022-10-05T05:09:08.474Z,99.90
2022-10-05T05:14:10.057Z,99.90
2022-10-05T05:19:11.813Z,99.90
2022-10-05T05:24:13.546Z,99.90
2022-10-05T05:29:15.299Z,99.90
2022-10-05T05:34:17.058Z,99.90
2022-10-05T05:39:18.823Z,99.90
2022-10-05T05:44:20.588Z,99.90
2022-10-05T05:49:22.308Z,99.90
2022-10-05T05:54:24.078Z,99.90
2022-10-05T05:59:25.609Z,99.90
2022-10-05T06:04:27.286Z,99.90
2022-10-05T06:09:28.815Z,99.90
2022-10-05T06:14:30.477Z,99.90
2022-10-05T06:24:50.594Z,99.90
2022-10-05T06:30:00.399Z,99.90
2022-10-05T06:35:09.709Z,99.90
2022-10-05T06:40:12.130Z,99.90
2022-10-05T06:45:13.696Z,99.90
2022-10-05T06:50:15.339Z,99.90
2022-10-05T06:55:16.894Z,99.90
2022-10-05T07:00:18.529Z,99.90
2022-10-05T07:05:20.299Z,99.90
2022-10-05T07:10:22.064Z,99.90
2022-10-05T07:15:23.620Z,99.90
2022-10-05T07:20:25.268Z,99.90
2022-10-05T07:25:26.871Z,99.90
2022-10-05T07:30:28.434Z,99.90
2022-10-05T07:35:30.005Z,99.90
2022-10-05T07:40:31.575Z,99.90
2022-10-05T07:45:34.254Z,99.90
2022-10-05T07:50:35.849Z,99.90
2022-10-05T07:55:37.364Z,99.90
2022-10-05T08:00:38.902Z,99.90
2022-10-05T08:05:40.473Z,99.90
2022-10-05T08:10:41.972Z,99.90
2022-10-05T08:15:43.551Z,99.90
2022-10-05T08:20:45.113Z,99.90
2022-10-05T08:25:46.642Z,99.90
2022-10-05T08:30:48.203Z,99.90
2022-10-05T08:35:50.066Z,99.90
2022-10-05T08:40:51.601Z,99.90
2022-10-05T08:45:53.168Z,99.90
2022-10-05T08:50:55.069Z,99.90
2022-10-05T08:55:56.614Z,99.90
2022-10-05T09:00:58.168Z,99.90
2022-10-05T09:05:59.695Z,99.90
2022-10-05T09:11:01.231Z,99.90
2022-10-05T09:16:02.852Z,99.90
2022-10-05T09:21:04.411Z,99.90
2022-10-05T09:26:05.924Z,99.90
2022-10-05T09:31:07.500Z,99.90
2022-10-05T09:36:09.215Z,99.90
2022-10-05T09:41:10.759Z,99.90
2022-10-05T09:46:12.356Z,99.90
2022-10-05T09:51:13.975Z,99.90
2022-10-05T09:56:15.573Z,99.90
2022-10-05T10:01:32.629Z,99.90
2022-10-05T10:06:35.223Z,99.90
2022-10-05T10:11:36.775Z,99.90
2022-10-05T10:16:38.290Z,99.90
2022-10-05T10:21:39.831Z,99.90
2022-10-05T10:26:41.576Z,99.90
2022-10-05T10:31:43.104Z,99.90
2022-10-05T10:36:44.618Z,99.90
2022-10-05T10:41:46.160Z,99.90
2022-10-05T10:46:47.968Z,99.90
2022-10-05T10:51:49.828Z,99.90
2022-10-05T10:56:51.731Z,99.90
2022-10-05T11:01:53.558Z,99.90
2022-10-05T11:06:55.284Z,99.90
2022-10-05T11:11:56.815Z,99.90
2022-10-05T11:16:58.355Z,99.50
2022-10-05T11:22:00.002Z,99.90
2022-10-05T11:27:01.535Z,99.90
2022-10-05T11:32:03.064Z,99.90
2022-10-05T11:37:04.578Z,99.90
2022-10-05T11:42:06.128Z,99.90
2022-10-05T11:47:07.662Z,99.90
2022-10-05T11:52:09.184Z,98.40
2022-10-05T11:57:10.701Z,99.30
2022-10-05T12:02:12.256Z,98.50
2022-10-05T12:07:13.936Z,97.20
2022-10-05T12:12:15.489Z,97.30
2022-10-05T12:17:17.019Z,96.80
2022-10-05T12:22:18.588Z,97.60
2022-10-05T12:27:20.123Z,96.10
2022-10-05T12:32:21.656Z,96.70
2022-10-05T12:37:23.194Z,93.20
2022-10-05T12:42:24.937Z,95.10
2022-10-05T12:47:26.484Z,96.10
2022-10-05T12:52:28.008Z,95.50
2022-10-05T12:57:29.540Z,94.90
2022-10-05T13:02:31.106Z,94.60
2022-10-05T13:07:32.769Z,94.70
2022-10-05T13:12:34.334Z,94.80
2022-10-05T13:17:36.910Z,94.80
2022-10-05T13:22:38.519Z,95.10
2022-10-05T13:27:42.092Z,94.70
2022-10-05T13:32:43.630Z,93.90
2022-10-05T13:37:45.157Z,91.80
2022-10-05T13:42:46.683Z,90.50
2022-10-05T13:47:48.206Z,90.70
2022-10-05T13:52:49.876Z,90.00
2022-10-05T13:57:51.400Z,89.10
2022-10-05T14:02:52.936Z,89.90
2022-10-05T14:07:54.695Z,89.10
2022-10-05T14:12:56.588Z,90.50
2022-10-05T14:17:58.130Z,90.00
2022-10-05T14:22:59.696Z,89.10
2022-10-05T14:28:01.512Z,88.10
2022-10-05T14:33:03.121Z,87.00
2022-10-05T14:38:04.724Z,86.60
2022-10-05T14:43:06.328Z,87.30
2022-10-05T14:48:07.873Z,89.30
2022-10-05T14:53:09.394Z,90.30
2022-10-05T14:58:11.253Z,90.90
2022-10-05T15:03:12.843Z,91.10
2022-10-05T15:08:14.379Z,90.70
2022-10-05T15:13:15.944Z,90.90
2022-10-05T15:18:17.494Z,91.50
2022-10-05T15:23:19.081Z,91.70
2022-10-05T15:28:20.687Z,91.70
2022-10-05T15:33:22.263Z,92.60
2022-10-05T15:38:25.632Z,95.40
2022-10-05T15:43:27.475Z,97.60
2022-10-05T15:48:29.069Z,99.30
2022-10-05T15:53:30.663Z,99.90
2022-10-05T15:58:32.212Z,99.90
2022-10-05T16:03:34.282Z,99.90
2022-10-05T16:08:35.820Z,99.90
2022-10-05T16:13:37.353Z,99.90
2022-10-05T16:18:38.890Z,99.90
2022-10-05T16:23:40.425Z,99.90
2022-10-05T16:28:41.977Z,99.90
2022-10-05T16:33:46.875Z,99.90
2022-10-05T16:38:48.664Z,99.90
2022-10-05T16:43:50.190Z,99.90
2022-10-05T16:48:51.714Z,99.90
2022-10-05T16:53:53.236Z,99.90
2022-10-05T16:58:54.763Z,99.90
2022-10-05T17:03:56.319Z,99.90
2022-10-05T17:08:57.849Z,99.90
2022-10-05T17:13:59.366Z,99.90
2022-10-05T17:19:00.920Z,99.90
2022-10-05T17:24:02.480Z,99.90
2022-10-05T17:29:03.993Z,99.90
2022-10-05T17:34:05.521Z,99.90
2022-10-05T17:39:07.056Z,99.90
2022-10-05T17:44:08.599Z,99.90
2022-10-05T17:49:10.096Z,99.90
2022-10-05T17:54:11.635Z,99.90
2022-10-05T17:59:13.226Z,99.90
2022-10-05T18:04:14.756Z,99.90
2022-10-05T18:09:16.295Z,99.90
2022-10-05T18:14:17.852Z,99.90
2022-10-05T18:19:19.414Z,99.90
2022-10-05T18:24:20.967Z,99.90
2022-10-05T18:29:22.515Z,99.90
2022-10-05T18:34:24.052Z,99.90
2022-10-05T18:39:25.654Z,99.90
2022-10-05T18:44:27.199Z,99.90
2022-10-05T18:49:28.739Z,99.90
2022-10-05T18:54:30.261Z,99.90
2022-10-05T18:59:31.787Z,99.90
2022-10-05T19:04:33.364Z,99.90
2022-10-05T19:09:34.899Z,99.90
2022-10-05T19:14:36.456Z,99.90
2022-10-05T19:19:37.994Z,99.90
2022-10-05T19:24:39.537Z,99.90
2022-10-05T19:29:41.093Z,99.90
2022-10-05T19:34:42.641Z,99.90
2022-10-05T19:39:44.170Z,99.90
2022-10-05T19:44:45.721Z,99.90
2022-10-05T19:49:47.277Z,99.90
2022-10-05T19:54:48.809Z,99.90
2022-10-05T19:59:50.559Z,99.90
2022-10-05T20:04:52.094Z,99.90
2022-10-05T20:09:53.649Z,99.90
2022-10-05T20:14:59.161Z,99.90
2022-10-05T20:20:01.032Z,99.90
2022-10-05T20:25:02.584Z,99.90
2022-10-05T20:30:04.123Z,99.90
2022-10-05T20:35:05.681Z,99.90
2022-10-05T20:40:07.218Z,99.90
2022-10-05T20:45:08.750Z,99.90
2022-10-05T20:50:10.277Z,99.90
2022-10-05T20:55:11.911Z,99.90
2022-10-05T21:00:13.454Z,99.90
2022-10-05T21:05:15.062Z,99.90
2022-10-05T21:10:16.713Z,99.90
2022-10-05T21:15:18.377Z,99.90
2022-10-05T21:20:19.910Z,99.90
2022-10-05T21:25:21.450Z,99.90
2022-10-05T21:30:22.969Z,99.90
2022-10-05T21:35:24.517Z,99.90
2022-10-05T21:40:26.050Z,99.90
2022-10-05T21:45:27.621Z,99.90
2022-10-05T21:50:29.204Z,99.90
2022-10-05T21:55:30.715Z,99.90
2022-10-05T22:00:32.265Z,99.90
2022-10-05T22:05:33.879Z,99.90
2022-10-05T22:10:35.432Z,99.90
2022-10-05T22:15:36.959Z,99.90
2022-10-05T22:20:38.490Z,99.90
2022-10-05T22:25:40.039Z,99.90
2022-10-05T22:30:41.571Z,99.90
2022-10-05T22:35:43.098Z,99.90
2022-10-05T22:40:44.614Z,99.90
2022-10-05T22:45:46.227Z,99.90
2022-10-05T22:50:47.790Z,99.90
2022-10-05T22:55:49.351Z,99.90
2022-10-05T23:00:58.312Z,99.90
2022-10-05T23:06:00.366Z,99.90
2022-10-05T23:11:01.900Z,99.90
2022-10-05T23:16:03.436Z,99.90
2022-10-05T23:21:04.958Z,99.90
2022-10-05T23:26:06.558Z,99.90
2022-10-05T23:31:08.239Z,99.90
2022-10-05T23:36:09.856Z,99.90
2022-10-05T23:41:11.396Z,99.90
2022-10-05T23:46:13.030Z,99.90
2022-10-05T23:51:14.566Z,99.90
2022-10-05T23:56:16.111Z,99.90
